Aeroporto :
LOGIN :

Iscrizione | Disclaimer

   EN    FR    IT 

 










Sommario :    VFR   VFR Marginale   IFR   IFR Intensivo   IFR Molto Intensivo
Visibilità : 
Base nubi : 
>= 8 km
>= 3000ft
5 / 8 km
1000 / 3000 ft
1500m / 5 km
500 / 1000 ft
800 / 1500m
200 / 500 ft
< 800m
< 200 ft
Simboli :   Temporali  Nebbia  Neve Forte  Precipitazioni Forti  Vento > 20 kt
SIGMETs :   Varie  Temporali  Ghiacco  Turbolenza  Onda orograficha  Ceneri Vulcaniche







- Altitudine del aeroporto : 17 ft
- Codice IATA : GRS


LIRS - Grosseto

ULTIMO METAR :
  • 220055Z 35005KT CAVOK 13/11 Q1012 RMK BKN BKN170 VIS MIN 9999 WIND THR03 01005KT WIND THR21 35005KT BLU

METARs OBSOLETI :
  • 212355Z 01004KT CAVOK 13/10 Q1012 RMK BKN BKN170 VIS MIN 9999 WIND THR03 02005KT WIND THR21 05003KT BLU
  • 212255Z 36004KT CAVOK 17/14 Q1013

TAF TAF LIRS
Valido dal 22 a 00 ore il 22 a 09 ore UTC


212300Z 2200/2209 03005KT CAVOK
Nessun NOTAM noto per questo aeroporto.
2 SIGMETs conosciuti per la FIR Roma (LIRR) :
 
Turbolenza severa
LIRR SIGMET 9 VALID 220000/220400 LIIB
LIRR ROMA FIR SEV TURB FCST WI N4154 E00943 - N4131 E01022 - N4026 E01201 - N3853 E01424 - N3630 E01626 - N3631 E01128 - N3728 E01131 - N3900 E00758 - N4055 E00757 - N4118 E00816 - N4119 E00945 - N4154 E00943 FL270/370 STNR NC=
Turbolenza severa
LIRR SIGMET 8 VALID 220000/220400 LIIB
LIRR ROMA FIR SEV TURB FCST WI N4154 E00943 - N4131 E01022 - N4026 E01201 - N3853 E01424 - N3630 E01626 - N3631 E01128 - N3728 E01131 - N3900 E00758 - N4055 E00757 - N4118 E00816 - N4119 E00945 - N4154 E00943 SFC/FL080 STNR NC=



MetMap, La meteo Aeronautica in un colpo d'occhio ! - Copyright ORBIFLY Dicembre 2007 - Disclaimer

ORBIFLY MET'MAP TEAM :

Programmazione e sviluppo : Alexandra Zaïnal
Concezione e sviluppo : Baudouin d'Aumeries
Co-Programmazione e sviluppo : Marc-Olivier Méhu
Supporto tecnico e logistico : Manuel Goepfert
Aiuto per la traduzione : Arnaldo La Scala

Contatto : metmap@orbifly.com




FONTI E CREDITI :

   NOAA